METAR Data
IDs: Format: Raw Decoded Include TAF

Data at: 0155 UTC 27 Jun 2019

Region: TOP
KATL 270152Z 33006KT 10SM BKN130 BKN200 BKN250 24/19 A3018 RMK AO2 SLP209 T02390194

KBOS 270054Z 06007KT 10SM FEW003 FEW040 SCT200 17/15 A3005 RMK AO2 SLP174 T01720150 $

KBWI 270054Z 00000KT 10SM FEW080 SCT140 SCT250 27/18 A3004 RMK AO2 SLP170 T02720183 $

KCLE 270151Z 00000KT 10SM FEW075 SCT250 26/16 A3011 RMK AO2 SLP188 T02560156

KCLT 270152Z 33003KT 10SM BKN250 22/19 A3015 RMK AO2 SLP201 T02220189

KCVG 270152Z 21005KT 10SM BKN250 25/19 A3013 RMK AO2 SLP194 T02500194

KDCA 270152Z 22007KT 10SM BKN075 BKN250 28/17 A3007 RMK AO2 SLP182 T02830172

KDEN 270053Z 08010KT 10SM FEW150 SCT250 29/03 A3000 RMK AO2 SLP080 T02890033

KDFW 270134Z 16020G26KT 10SM VCTS SCT050 29/21 A3007 RMK AO2 PK WND 16026/0133 TSE28 CB DSNT SE-S MOV NW T02940211

KDTW 270053Z 27005KT 10SM BKN220 27/13 A3006 RMK AO2 SLP176 T02670133

KEWR 270151Z 21007KT 10SM FEW060 FEW120 BKN250 27/17 A3002 RMK AO2 SLP164 T02720172

KFLL 270150Z 29008KT 10SM BKN026 BKN120 BKN250 28/21 A3007 RMK AO2

KIAD 270152Z 18005KT 10SM FEW080 FEW160 25/18 A3008 RMK AO2 SLP181 T02500178

KIAH 270053Z 12009KT 10SM FEW025 SCT100 BKN160 BKN250 27/25 A3008 RMK AO2 RAB19E46 SLP184 P0000 T02720250

KJFK 270151Z 19006KT 10SM FEW065 FEW100 SCT250 23/20 A3004 RMK AO2 SLP172 T02280200 $

KLAS 270056Z 19012G20KT 10SM FEW250 36/M01 A2978 RMK AO2 SLP056 T03611011

KLAX 270053Z 26013KT 10SM SCT012 19/15 A2995 RMK AO2 SLP139 T01940150 $

KLGA 270151Z 16006KT 10SM FEW060 SCT180 BKN250 27/18 A3002 RMK AO2 SLP164 T02720178 $

KMCO 270053Z 07009KT 10SM FEW060 FEW120 FEW250 29/22 A3009 RMK AO2 SLP189 CB DSNT NW T02940217

KMDW 270053Z 05010KT 10SM -TSRA SCT065CB BKN095 BKN140 BKN250 24/19 A3004 RMK AO2 LTG DSNT W AND NW SLP165 RAB33 FRQ LTGICCCCG VC SW-NW TS VC SW-NW MOV E P0002 T02390189

KMEM 270054Z 27006KT 10SM FEW043 BKN250 29/22 A3014 RMK AO2 SLP201 T02890217

KMIA 270053Z 30006KT 10SM FEW045 SCT120 BKN250 27/19 A3007 RMK AO2 SLP184 T02720194

KMSP 270053Z 22004KT 10SM SCT250 29/11 A3001 RMK AO2 SLP155 T02890111

KORD 270151Z 12004KT 10SM FEW031 SCT090 SCT150 BKN250 23/19 A3008 RMK AO2 LTG DSNT E-SW RAE40 TSE40 SLP182 CB DSNT NE-E-SE MOV E P0015 T02280189

KPDX 270138Z 29011KT 10SM TS BKN060CB BKN075 BKN100 BKN250 20/11 A2986 RMK AO2 LTG DSNT ALQDS TSB32 OCNL LTGICCG SE TS SE MOV N T02000111

KPHL 270054Z 23008KT 10SM BKN250 29/18 A3002 RMK AO2 SLP165 T02890183 $

KPHX 270151Z 32008KT 10SM FEW220 FEW250 38/06 A2978 RMK AO2 SLP063 T03780061

KPIT 270151Z 23004KT 10SM FEW050 FEW180 BKN250 25/18 A3012 RMK AO2 SLP196 T02500178

KSAN 270151Z 31006KT 10SM FEW024 19/13 A2997 RMK AO2 SLP150 T01940128

KSEA 270053Z 00000KT 10SM FEW030 BKN085 OVC110 17/12 A2987 RMK AO2 RAE2356 SLP121 P0000 T01670117

KSFO 270136Z 27013KT 10SM FEW014 BKN020 BKN200 17/11 A3003 RMK AO2 T01670111

KSLC 270054Z 18013G29KT 10SM FEW090 FEW120 SCT180 SCT250 32/02 A2984 RMK AO2 PK WND 20031/0006 SLP043 T03220017

KSTL 270151Z 17009KT 10SM FEW045 FEW110 BKN150 BKN250 22/19 A3011 RMK SLPNO

KTPA 270053Z 36010KT 10SM FEW060 FEW200 33/23 A3007 RMK AO2 SLP181 T03280233 $